Airfield :
LOGIN :

Register | Disclaimer

   EN    FR    IT 

 










Legend :    VFR   Marginal VFR   IFR   Intensive IFR   Very Intensive IFR
Visi :
Ceiling :
>= 8 km
>= 3000ft
5 to 8 km
1000 to 3000 ft
1500m to 5 km
500 to 1000 ft
800 to 1500m
200 to 500 ft
< 800m
< 200 ft
Symbols :   Thunderstorms  Fog  Heavy snow  Heavy precipitations  Wind > 20 kt
SIGMETs :     Misc.  Thunderstorms  Icing  Turbulence  Mountain Waves  Volcanic Ashes






- Airport Elevation : 686 ft
- IATA code : URS


UUOK - Vostochny

CURRENT METAR :
  • 291300Z 24005MPS 9999 BKN041 04/M04 Q1011 R30/090060 NOSIG RMK QFE740/0987

EXPIRED METARs :
  • 291230Z 25006MPS 220V280 9999 BKN033 05/M04 Q1011 R30/090060 NOSIG RMK QFE740/0987
  • 291200Z 27005MPS 240V300 9999 BKN033 04/M05 Q1011 R30/090060 NOSIG RMK QFE740/0986
  • 291130Z 26005MPS 9999 BKN033 04/M05 Q1011 R30/090060 NOSIG RMK QFE740/0986
  • 291100Z 25005MPS 9999 BKN033 04/M06 Q1011 R30/090060 NOSIG RMK QFE740/0986
  • 291030Z 25006MPS 9999 BKN033 05/M05 Q1011 R30/090060 NOSIG RMK QFE740/0986

TAF TAF UUOK
Valid from the 29 at 12:00 until the 29 at 21:00 UTC


291100Z 2912/2921 24005G10MPS 9999 SCT030



MET'MAP, your aeronautical weather chart ! - Copyright ORBIFLY December 2007 - Disclaimer

ORBIFLY MET'MAP TEAM :

Programming & Development : Alexandra Zaïnal
Concept & original design : Baudouin d'Aumeries
Assistance for programming : Marc-Olivier Méhu
Technical & hardware support : Manuel Goepfert

Contact : metmap@orbifly.com




SOURCES & CREDITS :

   NOAA